createdAt,value
2022-08-31T00:00:09.731Z,54.06
2022-08-31T00:02:54.991Z,54.17
2022-08-31T00:05:21.726Z,53.61
2022-08-31T00:07:48.151Z,53.46
2022-08-31T00:10:15.932Z,54.11
2022-08-31T00:12:43.701Z,54.45
2022-08-31T00:15:12.855Z,54.86
2022-08-31T00:17:39.696Z,55.03
2022-08-31T00:20:08.410Z,54.73
2022-08-31T00:22:54.988Z,54.68
2022-08-31T00:25:24.017Z,55.04
2022-08-31T00:27:50.463Z,55.51
2022-08-31T00:30:16.891Z,55.15
2022-08-31T00:32:43.301Z,55.47
2022-08-31T00:35:09.718Z,55.50
2022-08-31T00:37:36.256Z,55.12
2022-08-31T00:40:03.786Z,55.80
2022-08-31T00:42:30.338Z,55.81
2022-08-31T00:44:56.735Z,55.90
2022-08-31T00:47:23.205Z,55.57
2022-08-31T00:49:51.405Z,55.79
2022-08-31T00:52:39.998Z,56.18
2022-08-31T00:55:26.695Z,56.06
2022-08-31T00:57:55.922Z,55.68
2022-08-31T01:00:26.176Z,56.51
2022-08-31T01:02:54.191Z,56.60
2022-08-31T01:05:21.094Z,56.19
2022-08-31T01:07:49.610Z,55.82
2022-08-31T01:10:19.381Z,56.14
2022-08-31T01:12:47.821Z,56.97
2022-08-31T01:15:17.361Z,56.74
2022-08-31T01:17:48.272Z,56.86
2022-08-31T01:20:24.702Z,57.14
2022-08-31T01:23:12.821Z,57.48
2022-08-31T01:25:42.905Z,57.87
2022-08-31T01:28:11.019Z,57.91
2022-08-31T01:30:38.489Z,57.84
2022-08-31T01:33:05.343Z,57.65
2022-08-31T01:35:33.769Z,57.77
2022-08-31T01:38:01.392Z,58.17
2022-08-31T01:40:37.397Z,57.80
2022-08-31T01:43:04.088Z,57.19
2022-08-31T01:45:30.547Z,56.65
2022-08-31T01:47:59.792Z,56.41
2022-08-31T01:50:26.271Z,56.38
2022-08-31T01:52:52.678Z,56.24
2022-08-31T01:55:19.201Z,55.67
2022-08-31T01:57:45.587Z,55.54
2022-08-31T02:00:12.571Z,55.81
2022-08-31T02:02:39.198Z,55.93
2022-08-31T02:05:08.979Z,56.71
2022-08-31T02:07:35.485Z,56.56
2022-08-31T02:10:01.893Z,56.18
2022-08-31T02:12:28.294Z,57.19
2022-08-31T02:14:54.725Z,56.22
2022-08-31T02:17:21.133Z,56.74
2022-08-31T02:19:47.556Z,55.76
2022-08-31T02:22:14.139Z,55.63
2022-08-31T02:24:40.613Z,57.05
2022-08-31T02:27:07.060Z,56.74
2022-08-31T02:29:33.672Z,55.97
2022-08-31T02:32:00.157Z,56.31
2022-08-31T02:34:26.692Z,55.43
2022-08-31T02:36:53.121Z,54.97
2022-08-31T02:39:19.681Z,55.84
2022-08-31T02:41:46.895Z,54.61
2022-08-31T02:44:13.573Z,56.33
2022-08-31T02:46:40.492Z,56.11
2022-08-31T02:49:06.976Z,56.32
2022-08-31T02:51:33.388Z,56.43
2022-08-31T02:53:59.813Z,56.74
2022-08-31T02:56:26.333Z,54.88
2022-08-31T02:58:54.978Z,55.26
2022-08-31T03:01:23.421Z,55.67
2022-08-31T03:03:50.482Z,55.80
2022-08-31T03:06:19.011Z,56.53
2022-08-31T03:08:46.283Z,56.48
2022-08-31T03:11:13.215Z,56.36
2022-08-31T03:13:40.433Z,55.66
2022-08-31T03:16:07.396Z,56.40
2022-08-31T03:18:34.043Z,55.14
2022-08-31T03:21:00.483Z,56.32
2022-08-31T03:23:26.957Z,56.71
2022-08-31T03:25:53.596Z,57.13
2022-08-31T03:28:20.091Z,56.80
2022-08-31T03:30:46.755Z,57.55
2022-08-31T03:33:13.338Z,57.68
2022-08-31T03:35:44.218Z,58.63
2022-08-31T03:38:12.932Z,58.35
2022-08-31T03:40:44.130Z,57.83
2022-08-31T03:43:12.021Z,56.83
2022-08-31T03:45:40.369Z,57.31
2022-08-31T03:48:11.549Z,58.32
2022-08-31T03:50:39.267Z,58.03
2022-08-31T03:53:07.365Z,58.46
2022-08-31T03:55:35.560Z,58.03
2022-08-31T03:58:01.985Z,57.38
2022-08-31T04:00:29.534Z,56.19
2022-08-31T04:02:59.508Z,57.06
2022-08-31T04:05:27.596Z,57.91
2022-08-31T04:07:54.761Z,57.09
2022-08-31T04:10:22.925Z,57.21
2022-08-31T04:12:50.555Z,57.84
2022-08-31T04:15:18.269Z,58.49
2022-08-31T04:17:47.438Z,58.85
2022-08-31T04:20:14.473Z,59.12
2022-08-31T04:22:40.949Z,59.39
2022-08-31T04:25:10.115Z,60.03
2022-08-31T04:27:38.149Z,60.56
2022-08-31T04:30:07.564Z,59.89
2022-08-31T04:32:35.135Z,59.29
2022-08-31T04:35:04.657Z,58.45
2022-08-31T04:37:31.235Z,61.46
2022-08-31T04:39:59.296Z,60.67
2022-08-31T04:42:30.083Z,60.74
2022-08-31T04:44:56.608Z,61.69
2022-08-31T04:47:23.029Z,61.88
2022-08-31T04:49:49.541Z,62.41
2022-08-31T04:52:15.953Z,62.28
2022-08-31T04:54:42.434Z,62.52
2022-08-31T04:57:08.884Z,62.45
2022-08-31T04:59:35.368Z,64.00
2022-08-31T05:02:03.889Z,64.84
2022-08-31T05:04:31.763Z,64.21
2022-08-31T05:06:58.254Z,65.54
2022-08-31T05:09:24.650Z,65.88
2022-08-31T05:11:52.841Z,66.16
2022-08-31T05:14:21.962Z,65.82
2022-08-31T05:16:48.774Z,65.33
2022-08-31T05:19:15.233Z,66.53
2022-08-31T05:21:43.525Z,68.28
2022-08-31T05:24:22.499Z,67.46
2022-08-31T05:26:51.980Z,68.21
2022-08-31T05:29:21.727Z,67.19
2022-08-31T05:31:52.283Z,67.77
2022-08-31T05:34:20.709Z,68.39
2022-08-31T05:36:52.395Z,68.75
2022-08-31T05:39:19.531Z,68.90
2022-08-31T05:41:47.521Z,70.07
2022-08-31T05:44:15.599Z,70.13
2022-08-31T05:46:42.393Z,71.04
2022-08-31T05:49:10.825Z,70.38
2022-08-31T05:51:38.886Z,70.38
2022-08-31T05:54:06.334Z,70.96
2022-08-31T05:56:32.813Z,71.01
2022-08-31T05:58:59.313Z,71.12
2022-08-31T06:01:34.333Z,71.62
2022-08-31T06:04:01.584Z,72.09
2022-08-31T06:06:28.327Z,71.30
2022-08-31T06:08:55.731Z,70.54
2022-08-31T06:11:25.698Z,72.17
2022-08-31T06:13:54.830Z,72.68
2022-08-31T06:16:22.984Z,72.47
2022-08-31T06:18:53.567Z,72.64
2022-08-31T06:21:31.943Z,72.77
2022-08-31T06:23:59.313Z,72.56
2022-08-31T06:26:28.584Z,73.50
2022-08-31T06:28:57.794Z,73.82
2022-08-31T06:31:29.754Z,72.70
2022-08-31T06:33:57.172Z,73.63
2022-08-31T06:36:26.382Z,72.94
2022-08-31T06:38:56.440Z,73.76
2022-08-31T06:41:30.424Z,74.17
2022-08-31T06:44:01.771Z,73.79
2022-08-31T06:46:29.650Z,74.24
2022-08-31T06:48:57.308Z,73.66
2022-08-31T06:51:24.996Z,74.48
2022-08-31T06:53:52.296Z,75.09
2022-08-31T06:56:21.783Z,74.51
2022-08-31T06:58:53.733Z,74.55
2022-08-31T07:01:35.202Z,74.61
2022-08-31T07:04:05.819Z,75.65
2022-08-31T07:06:36.446Z,75.57
2022-08-31T07:09:06.348Z,75.81
2022-08-31T07:11:44.327Z,77.24
2022-08-31T07:14:13.722Z,79.00
2022-08-31T07:16:41.210Z,79.42
2022-08-31T07:19:08.247Z,79.96
2022-08-31T07:21:40.432Z,81.63
2022-08-31T07:24:07.263Z,80.18
2022-08-31T07:26:40.689Z,80.34
2022-08-31T07:29:08.118Z,80.51
2022-08-31T07:31:56.182Z,81.31
2022-08-31T07:34:25.874Z,81.47
2022-08-31T07:37:16.545Z,81.31
2022-08-31T07:40:07.077Z,82.18
2022-08-31T07:42:39.846Z,83.71
2022-08-31T07:45:12.834Z,83.61
2022-08-31T07:47:45.187Z,83.86
2022-08-31T07:50:13.132Z,83.35
2022-08-31T07:52:48.514Z,84.55
2022-08-31T07:55:17.714Z,85.40
2022-08-31T07:57:45.215Z,86.86
2022-08-31T08:00:20.799Z,87.25
2022-08-31T08:02:50.785Z,87.36
2022-08-31T08:05:24.444Z,88.08
2022-08-31T08:07:56.156Z,87.65
2022-08-31T08:10:24.136Z,88.61
2022-08-31T08:12:57.028Z,88.95
2022-08-31T08:15:26.621Z,89.24
2022-08-31T08:17:53.091Z,90.43
2022-08-31T08:20:34.483Z,90.13
2022-08-31T08:23:13.882Z,89.96
2022-08-31T08:25:43.229Z,90.04
2022-08-31T08:28:37.703Z,90.39
2022-08-31T08:31:04.252Z,88.72
2022-08-31T08:33:32.767Z,89.98
2022-08-31T08:36:03.527Z,90.00
2022-08-31T08:38:31.184Z,89.88
2022-08-31T08:41:00.553Z,89.55
2022-08-31T08:43:36.678Z,89.00
2022-08-31T08:46:20.185Z,89.31
2022-08-31T08:48:54.649Z,88.01
2022-08-31T08:51:31.030Z,87.57
2022-08-31T08:54:03.103Z,87.78
2022-08-31T08:56:33.745Z,89.44
2022-08-31T08:59:00.860Z,89.77
2022-08-31T09:01:28.952Z,88.44
2022-08-31T09:04:24.617Z,88.27
2022-08-31T09:07:04.860Z,88.18
2022-08-31T09:10:01.452Z,88.87
2022-08-31T09:12:35.267Z,87.08
2022-08-31T09:15:36.489Z,88.49
2022-08-31T09:18:06.107Z,88.18
2022-08-31T09:20:33.687Z,87.15
2022-08-31T09:23:00.904Z,85.55
2022-08-31T09:25:35.904Z,86.21
2022-08-31T09:28:07.894Z,87.06
2022-08-31T09:30:54.975Z,85.91
2022-08-31T09:33:30.181Z,85.98
2022-08-31T09:36:15.778Z,84.89
2022-08-31T09:38:46.849Z,84.06
2022-08-31T09:41:33.189Z,85.03
2022-08-31T09:44:21.349Z,85.64
2022-08-31T09:46:51.004Z,86.19
2022-08-31T09:49:34.335Z,86.45
2022-08-31T09:52:42.259Z,85.39
2022-08-31T09:55:13.362Z,86.49
2022-08-31T09:57:53.997Z,85.50
2022-08-31T10:00:33.123Z,86.22
2022-08-31T10:03:22.033Z,85.55
2022-08-31T10:05:51.914Z,86.00
2022-08-31T10:08:57.921Z,87.40
2022-08-31T10:11:29.597Z,86.64
2022-08-31T10:14:04.535Z,89.23
2022-08-31T10:16:41.667Z,89.51
2022-08-31T10:19:17.660Z,89.92
2022-08-31T10:21:52.273Z,89.86
2022-08-31T10:24:39.179Z,88.93
2022-08-31T10:27:08.692Z,93.35
2022-08-31T10:29:40.143Z,91.68
2022-08-31T10:32:20.177Z,90.39
2022-08-31T10:35:05.762Z,94.61
2022-08-31T10:38:10.925Z,97.56
2022-08-31T10:40:47.244Z,98.58
2022-08-31T10:43:21.537Z,98.20
2022-08-31T10:45:51.758Z,95.31
2022-08-31T10:48:24.613Z,99.35
2022-08-31T10:51:13.178Z,95.28
2022-08-31T10:53:59.807Z,93.32
2022-08-31T10:56:59.237Z,93.73
2022-08-31T10:59:30.087Z,92.64
2022-08-31T11:02:25.531Z,92.88
2022-08-31T11:05:14.277Z,89.23
2022-08-31T11:07:50.548Z,88.58
2022-08-31T11:10:29.608Z,89.15
2022-08-31T11:13:02.741Z,88.85
2022-08-31T11:15:34.918Z,87.34
2022-08-31T11:18:43.924Z,88.17
2022-08-31T11:21:25.161Z,89.38
2022-08-31T11:24:09.620Z,88.42
2022-08-31T11:27:00.950Z,88.13
2022-08-31T11:29:36.401Z,89.22
2022-08-31T11:32:11.105Z,89.30
2022-08-31T11:34:47.313Z,88.66
2022-08-31T11:37:55.904Z,88.58
2022-08-31T11:40:43.889Z,86.30
2022-08-31T11:43:32.407Z,87.87
2022-08-31T11:46:28.415Z,86.34
2022-08-31T11:48:55.059Z,87.73
2022-08-31T11:51:41.469Z,89.11
2022-08-31T11:54:26.239Z,88.71
2022-08-31T11:56:56.727Z,90.87
2022-08-31T11:59:35.407Z,89.31
2022-08-31T12:02:20.154Z,89.42
2022-08-31T12:04:47.450Z,88.01
2022-08-31T12:07:28.438Z,85.84
2022-08-31T12:10:07.043Z,86.98
2022-08-31T12:12:44.533Z,85.54
2022-08-31T12:15:32.235Z,84.46
2022-08-31T12:18:09.491Z,83.02
2022-08-31T12:21:12.735Z,82.08
2022-08-31T12:24:08.543Z,82.97
2022-08-31T12:26:59.467Z,83.01
2022-08-31T12:29:27.803Z,83.33
2022-08-31T12:32:17.899Z,82.71
2022-08-31T12:34:54.946Z,80.15
2022-08-31T12:37:30.694Z,79.93
2022-08-31T12:40:10.153Z,80.01
2022-08-31T12:43:00.084Z,78.97
2022-08-31T12:46:01.337Z,78.58
2022-08-31T12:48:30.538Z,80.81
2022-08-31T12:51:07.694Z,77.20
2022-08-31T12:53:34.069Z,76.81
2022-08-31T12:56:30.309Z,75.61
2022-08-31T12:59:15.967Z,76.08
2022-08-31T13:01:48.121Z,76.01
2022-08-31T13:04:21.218Z,74.14
2022-08-31T13:06:50.492Z,74.41
2022-08-31T13:09:31.529Z,75.12
2022-08-31T13:12:00.633Z,73.40
2022-08-31T13:14:30.662Z,72.13
2022-08-31T13:17:07.203Z,72.36
2022-08-31T13:19:36.128Z,72.28
2022-08-31T13:22:06.121Z,70.08
2022-08-31T13:24:41.115Z,73.62
2022-08-31T13:27:19.629Z,73.26
2022-08-31T13:29:47.609Z,72.45
2022-08-31T13:32:33.266Z,73.30
2022-08-31T13:35:04.219Z,71.41
2022-08-31T13:37:37.977Z,74.41
2022-08-31T13:40:16.676Z,74.72
2022-08-31T13:42:46.773Z,75.23
2022-08-31T13:45:27.257Z,75.43
2022-08-31T13:47:57.897Z,74.68
2022-08-31T13:50:52.563Z,74.38
2022-08-31T13:53:42.507Z,73.09
2022-08-31T13:56:46.394Z,73.26
2022-08-31T13:59:29.139Z,71.74
2022-08-31T14:02:00.007Z,70.22
2022-08-31T14:04:48.607Z,68.86
2022-08-31T14:07:43.780Z,66.75
2022-08-31T14:10:14.935Z,67.11
2022-08-31T14:13:00.908Z,67.40
2022-08-31T14:15:38.620Z,68.53
2022-08-31T14:18:25.987Z,68.18
2022-08-31T14:21:26.635Z,67.82
2022-08-31T14:24:04.662Z,66.32
2022-08-31T14:26:42.300Z,65.67
2022-08-31T14:29:13.866Z,65.64
2022-08-31T14:31:51.835Z,65.39
2022-08-31T14:34:32.131Z,65.62
2022-08-31T14:37:11.307Z,64.47
2022-08-31T14:39:48.000Z,64.43
2022-08-31T14:42:18.691Z,63.11
2022-08-31T14:44:56.481Z,61.33
2022-08-31T14:47:25.023Z,62.74
2022-08-31T14:49:52.015Z,61.16
2022-08-31T14:52:18.534Z,61.21
2022-08-31T14:54:45.966Z,61.53
2022-08-31T14:57:25.097Z,62.80
2022-08-31T14:59:57.653Z,62.07
2022-08-31T15:02:28.586Z,62.55
2022-08-31T15:05:04.523Z,63.15
2022-08-31T15:07:32.128Z,64.42
2022-08-31T15:09:59.183Z,64.01
2022-08-31T15:12:25.625Z,63.07
2022-08-31T15:14:58.141Z,63.95
2022-08-31T15:17:24.919Z,62.93
2022-08-31T15:19:53.046Z,63.52
2022-08-31T15:22:19.569Z,64.23
2022-08-31T15:24:46.139Z,63.39
2022-08-31T15:27:15.293Z,63.25
2022-08-31T15:29:43.508Z,63.01
2022-08-31T15:32:10.363Z,63.90
2022-08-31T15:34:38.005Z,63.86
2022-08-31T15:37:06.972Z,62.99
2022-08-31T15:39:43.340Z,63.27
2022-08-31T15:42:11.125Z,61.44
2022-08-31T15:44:40.392Z,60.18
2022-08-31T15:47:27.909Z,59.96
2022-08-31T15:49:56.119Z,58.51
2022-08-31T15:55:11.854Z,55.37
2022-08-31T15:57:40.929Z,54.44
2022-08-31T16:00:12.215Z,55.26
2022-08-31T16:02:38.655Z,55.14
2022-08-31T16:05:06.572Z,55.27
2022-08-31T16:07:34.767Z,55.57
2022-08-31T16:10:02.877Z,54.65
2022-08-31T16:12:29.392Z,53.17
2022-08-31T16:14:55.830Z,51.73
2022-08-31T16:17:22.218Z,52.14
2022-08-31T16:19:49.401Z,53.27
2022-08-31T16:22:17.145Z,51.74
2022-08-31T16:24:44.592Z,51.39
2022-08-31T16:27:16.550Z,51.25
2022-08-31T16:29:43.612Z,51.93
2022-08-31T16:32:10.134Z,51.53
2022-08-31T16:34:39.153Z,52.33
2022-08-31T16:37:07.659Z,51.74
2022-08-31T16:39:40.334Z,52.38
2022-08-31T16:42:08.694Z,52.05
2022-08-31T16:44:36.675Z,52.31
2022-08-31T16:47:04.973Z,52.97
2022-08-31T16:49:35.766Z,52.74
2022-08-31T16:52:04.424Z,52.84
2022-08-31T16:54:30.963Z,52.50
2022-08-31T16:56:57.724Z,52.14
2022-08-31T16:59:28.938Z,52.07
2022-08-31T17:01:56.208Z,52.79
2022-08-31T17:04:48.163Z,52.57
2022-08-31T17:07:12.326Z,53.25
2022-08-31T17:09:39.709Z,53.68
2022-08-31T17:12:09.523Z,53.81
2022-08-31T17:14:43.502Z,53.95
2022-08-31T17:17:13.373Z,54.11
2022-08-31T17:19:42.038Z,54.46
2022-08-31T17:22:16.992Z,54.45
2022-08-31T17:24:46.206Z,54.03
2022-08-31T17:27:19.596Z,53.88
2022-08-31T17:29:50.956Z,53.88
2022-08-31T17:32:20.781Z,54.29
2022-08-31T17:34:51.669Z,55.27
2022-08-31T17:37:23.977Z,56.14
2022-08-31T17:39:52.799Z,56.31
2022-08-31T17:42:26.652Z,57.41
2022-08-31T17:44:54.302Z,58.19
2022-08-31T17:47:22.757Z,59.76
2022-08-31T17:49:52.540Z,60.63
2022-08-31T17:52:23.617Z,60.48
2022-08-31T17:54:53.660Z,61.28
2022-08-31T17:57:24.734Z,62.79
2022-08-31T17:59:52.657Z,62.78
2022-08-31T18:02:32.508Z,62.53
2022-08-31T18:05:00.333Z,62.63
2022-08-31T18:07:27.601Z,62.89
2022-08-31T18:09:54.073Z,64.02
2022-08-31T18:12:25.437Z,62.81
2022-08-31T18:14:53.650Z,61.56
2022-08-31T18:17:22.248Z,61.68
2022-08-31T18:19:49.045Z,62.12
2022-08-31T18:22:15.612Z,60.67
2022-08-31T18:24:42.739Z,61.45
2022-08-31T18:27:11.534Z,61.51
2022-08-31T18:29:38.504Z,61.04
2022-08-31T18:32:07.603Z,61.11
2022-08-31T18:34:38.942Z,61.10
2022-08-31T18:37:06.873Z,60.97
2022-08-31T18:39:59.631Z,60.99
2022-08-31T18:42:45.898Z,60.99
2022-08-31T18:45:20.967Z,61.26
2022-08-31T18:48:20.747Z,61.28
2022-08-31T18:50:47.261Z,61.59
2022-08-31T18:53:28.638Z,61.74
2022-08-31T18:55:56.518Z,62.27
2022-08-31T18:58:22.992Z,62.26
2022-08-31T19:00:57.559Z,63.22
2022-08-31T19:03:25.601Z,63.57
2022-08-31T19:05:52.037Z,62.99
2022-08-31T19:08:19.266Z,63.40
2022-08-31T19:10:46.747Z,62.92
2022-08-31T19:13:15.847Z,63.76
2022-08-31T19:15:42.348Z,63.60
2022-08-31T19:18:08.781Z,63.32
2022-08-31T19:20:35.559Z,62.68
2022-08-31T19:23:02.614Z,62.50
2022-08-31T19:25:29.234Z,62.76
2022-08-31T19:27:55.983Z,62.74
2022-08-31T19:30:27.859Z,62.98
2022-08-31T19:32:56.050Z,62.01
2022-08-31T19:35:22.890Z,62.00
2022-08-31T19:37:51.883Z,63.59
2022-08-31T19:40:19.227Z,64.18
2022-08-31T19:45:43.723Z,64.83
2022-08-31T19:48:13.038Z,65.29
2022-08-31T19:50:42.112Z,64.58
2022-08-31T19:53:13.727Z,64.30
2022-08-31T19:55:51.193Z,64.40
2022-08-31T19:58:19.775Z,64.52
2022-08-31T20:00:48.373Z,64.60
2022-08-31T20:03:15.944Z,64.64
2022-08-31T20:05:43.230Z,64.85
2022-08-31T20:08:10.315Z,65.97
2022-08-31T20:10:44.757Z,65.61
2022-08-31T20:13:12.407Z,66.48
2022-08-31T20:15:41.457Z,66.01
2022-08-31T20:18:11.086Z,66.31
2022-08-31T20:20:46.097Z,66.38
2022-08-31T20:23:16.495Z,66.74
2022-08-31T20:25:45.554Z,66.13
2022-08-31T20:28:12.466Z,66.18
2022-08-31T20:30:41.154Z,65.84
2022-08-31T20:33:08.113Z,66.12
2022-08-31T20:35:36.377Z,65.80
2022-08-31T20:38:02.866Z,66.19
2022-08-31T20:40:29.407Z,65.66
2022-08-31T20:42:56.572Z,65.76
2022-08-31T20:45:23.225Z,66.53
2022-08-31T20:48:08.001Z,66.94
2022-08-31T20:50:35.920Z,66.92
2022-08-31T20:53:02.988Z,67.43
2022-08-31T20:55:29.524Z,67.04
2022-08-31T20:57:56.005Z,67.32
2022-08-31T21:00:24.662Z,67.57
2022-08-31T21:02:51.977Z,67.98
2022-08-31T21:08:05.522Z,68.40
2022-08-31T21:10:36.633Z,68.29
2022-08-31T21:13:06.953Z,68.21
2022-08-31T21:15:33.368Z,68.75
2022-08-31T21:17:59.770Z,68.89
2022-08-31T21:20:26.438Z,69.34
2022-08-31T21:22:53.368Z,69.00
2022-08-31T21:25:20.216Z,69.24
2022-08-31T21:27:46.964Z,69.46
2022-08-31T21:30:13.608Z,69.71
2022-08-31T21:32:43.031Z,69.29
2022-08-31T21:35:12.046Z,69.44
2022-08-31T21:37:38.545Z,69.78
2022-08-31T21:40:06.124Z,69.22
2022-08-31T21:42:32.660Z,69.29
2022-08-31T21:44:59.058Z,69.36
2022-08-31T21:47:26.131Z,69.54
2022-08-31T21:49:53.364Z,69.90
2022-08-31T21:52:20.053Z,69.80
2022-08-31T21:54:47.983Z,70.29
2022-08-31T21:57:15.602Z,70.07
2022-08-31T21:59:42.395Z,70.73
2022-08-31T22:02:11.147Z,70.29
2022-08-31T22:04:44.038Z,70.42
2022-08-31T22:07:11.784Z,70.89
2022-08-31T22:09:38.393Z,70.78
2022-08-31T22:12:07.319Z,71.38
2022-08-31T22:14:38.951Z,71.47
2022-08-31T22:17:06.868Z,71.87
2022-08-31T22:19:38.953Z,71.55
2022-08-31T22:22:09.184Z,71.86
2022-08-31T22:24:41.171Z,71.57
2022-08-31T22:27:09.777Z,71.62
2022-08-31T22:29:37.772Z,72.32
2022-08-31T22:32:11.946Z,72.77
2022-08-31T22:34:41.945Z,72.50
2022-08-31T22:37:11.125Z,72.32
2022-08-31T22:39:38.739Z,71.45
2022-08-31T22:42:05.515Z,71.40
2022-08-31T22:44:34.399Z,71.84
2022-08-31T22:47:02.143Z,72.31
2022-08-31T22:49:28.989Z,72.42
2022-08-31T22:51:56.827Z,72.75
2022-08-31T22:54:23.729Z,71.98
2022-08-31T22:56:50.845Z,72.29
2022-08-31T22:59:26.885Z,71.38
2022-08-31T23:01:57.065Z,72.32
2022-08-31T23:04:26.204Z,71.02
2022-08-31T23:06:53.214Z,71.73
2022-08-31T23:09:21.553Z,71.50
2022-08-31T23:11:51.335Z,70.41
2022-08-31T23:14:20.945Z,70.62
2022-08-31T23:16:55.082Z,71.44
2022-08-31T23:19:26.222Z,71.20
2022-08-31T23:21:56.646Z,71.51
2022-08-31T23:24:31.310Z,71.26
2022-08-31T23:27:04.284Z,72.25
2022-08-31T23:29:41.790Z,72.51
2022-08-31T23:32:11.923Z,73.09
2022-08-31T23:34:39.313Z,74.41
2022-08-31T23:37:10.205Z,74.53
2022-08-31T23:39:40.210Z,74.68
2022-08-31T23:42:08.965Z,75.30
2022-08-31T23:44:36.074Z,76.48
2022-08-31T23:47:02.765Z,75.57
2022-08-31T23:49:29.271Z,75.98
2022-08-31T23:51:55.690Z,76.44
2022-08-31T23:54:23.295Z,76.47
2022-08-31T23:56:52.034Z,77.48
2022-08-31T23:59:19.789Z,77.08
